Valewood, Mississippi
Current Conditions -  °F | °C
As of 3:53 AM on Monday 22 Dec 2014 (Local Time) from KGLH Reporting Station
Haze Haze  
Wind Chill: 51°   Ceiling: 600
Heat Index: 51°   Visibility: 6mi
Dew Point: 48°   Wind: 12mph
Humidity: 89%   Direction: 160°SSE
Pressure: 29.85"   Gusts: NA
Location:  33.0379°N, 90.9708°W
Report Text: KGLH 220953Z AUTO 16010KT 6SM BR OVC006 11/09 A2985 RMK AO2 SLP114 T01060089
Loading
Personal Weather Stations






























Interactive Weather Map New forecast layout! Learn more

10-Day Weather Forecast

Advertisements
Track Severe Weather on mobile